createdAt,value
2022-07-31T00:00:10.546Z,0.00
2022-07-31T00:01:10.535Z,0.00
2022-07-31T00:02:10.518Z,0.00
2022-07-31T00:03:10.539Z,0.00
2022-07-31T00:04:10.494Z,0.00
2022-07-31T00:05:10.479Z,0.00
2022-07-31T00:06:10.466Z,0.00
2022-07-31T00:07:10.448Z,0.00
2022-07-31T00:08:10.439Z,0.00
2022-07-31T00:09:20.475Z,0.00
2022-07-31T00:10:10.413Z,0.00
2022-07-31T00:11:10.399Z,0.00
2022-07-31T00:12:10.391Z,0.00
2022-07-31T00:13:10.540Z,0.00
2022-07-31T00:14:10.359Z,0.00
2022-07-31T00:15:10.356Z,0.00
2022-07-31T00:16:10.334Z,0.00
2022-07-31T00:17:10.320Z,0.00
2022-07-31T00:18:10.304Z,0.00
2022-07-31T00:19:10.288Z,0.00
2022-07-31T00:20:10.284Z,0.00
2022-07-31T00:21:10.264Z,0.00
2022-07-31T00:22:10.255Z,0.00
2022-07-31T00:23:10.970Z,0.00
2022-07-31T00:24:10.225Z,0.00
2022-07-31T00:25:10.210Z,0.00
2022-07-31T00:26:10.193Z,0.00
2022-07-31T00:27:10.179Z,0.00
2022-07-31T00:28:10.169Z,0.00
2022-07-31T00:29:10.161Z,0.00
2022-07-31T00:30:10.138Z,0.00
2022-07-31T00:31:10.154Z,0.00
2022-07-31T00:32:10.117Z,0.00
2022-07-31T00:33:10.101Z,0.00
2022-07-31T00:34:10.093Z,0.00
2022-07-31T00:35:10.074Z,0.00
2022-07-31T00:36:10.057Z,0.00
2022-07-31T00:37:10.069Z,0.00
2022-07-31T00:38:26.985Z,0.00
2022-07-31T00:39:10.021Z,0.00
2022-07-31T00:40:10.015Z,0.00
2022-07-31T00:41:09.993Z,0.00
2022-07-31T00:42:09.983Z,0.00
2022-07-31T00:43:09.963Z,0.00
2022-07-31T00:44:12.429Z,0.00
2022-07-31T00:45:09.939Z,0.00
2022-07-31T00:46:14.318Z,0.00
2022-07-31T00:47:09.915Z,0.00
2022-07-31T00:48:09.891Z,0.00
2022-07-31T00:49:09.975Z,0.00
2022-07-31T00:50:09.868Z,0.00
2022-07-31T00:51:09.854Z,0.00
2022-07-31T00:52:09.842Z,0.00
2022-07-31T00:53:09.830Z,0.00
2022-07-31T00:54:09.815Z,0.00
2022-07-31T00:55:09.799Z,0.00
2022-07-31T00:56:09.787Z,0.00
2022-07-31T00:57:09.774Z,0.00
2022-07-31T00:58:09.759Z,0.00
2022-07-31T00:59:09.743Z,0.00
2022-07-31T01:00:09.740Z,0.00
2022-07-31T01:01:09.814Z,0.00
2022-07-31T01:02:09.708Z,0.00
2022-07-31T01:03:09.693Z,0.00
2022-07-31T01:04:15.574Z,0.00
2022-07-31T01:05:09.662Z,0.00
2022-07-31T01:06:09.648Z,0.00
2022-07-31T01:07:09.633Z,0.00
2022-07-31T01:08:09.624Z,0.00
2022-07-31T01:09:09.606Z,0.00
2022-07-31T01:10:09.592Z,0.00
2022-07-31T01:11:09.580Z,0.00
2022-07-31T01:12:09.562Z,0.00
2022-07-31T01:13:09.554Z,0.00
2022-07-31T01:14:09.534Z,0.00
2022-07-31T01:15:09.529Z,0.00
2022-07-31T01:16:09.508Z,0.00
2022-07-31T01:17:09.496Z,0.00
2022-07-31T01:18:09.481Z,0.00
2022-07-31T01:19:09.464Z,0.00
2022-07-31T01:20:09.457Z,0.00
2022-07-31T01:21:09.439Z,0.00
2022-07-31T01:22:34.261Z,0.00
2022-07-31T01:23:09.413Z,0.00
2022-07-31T01:24:09.395Z,0.00
2022-07-31T01:25:09.384Z,0.00
2022-07-31T01:26:09.367Z,0.00
2022-07-31T01:27:09.354Z,0.00
2022-07-31T01:28:09.341Z,0.00
2022-07-31T01:29:09.325Z,0.00
2022-07-31T01:30:09.309Z,0.00
2022-07-31T01:31:27.291Z,0.00
2022-07-31T01:32:09.284Z,0.00
2022-07-31T01:33:09.273Z,0.00
2022-07-31T01:34:09.252Z,0.00
2022-07-31T01:35:09.239Z,0.00
2022-07-31T01:36:09.225Z,0.00
2022-07-31T01:37:10.586Z,0.00
2022-07-31T01:38:09.196Z,0.00
2022-07-31T01:39:09.180Z,0.00
2022-07-31T01:40:09.171Z,0.00
2022-07-31T01:41:09.157Z,0.00
2022-07-31T01:42:09.143Z,0.00
2022-07-31T01:43:09.127Z,0.00
2022-07-31T01:44:13.799Z,0.00
2022-07-31T01:45:09.101Z,0.00
2022-07-31T01:46:09.088Z,0.00
2022-07-31T01:47:09.070Z,0.00
2022-07-31T01:48:09.058Z,0.00
2022-07-31T01:49:09.071Z,0.00
2022-07-31T01:50:09.027Z,0.00
2022-07-31T01:51:09.016Z,0.00
2022-07-31T01:52:08.999Z,0.00
2022-07-31T01:53:08.983Z,0.00
2022-07-31T01:54:08.970Z,0.00
2022-07-31T01:55:08.957Z,0.00
2022-07-31T01:56:08.949Z,0.00
2022-07-31T01:57:08.928Z,0.00
2022-07-31T01:58:08.915Z,0.00
2022-07-31T01:59:20.537Z,0.00
2022-07-31T02:00:33.472Z,0.00
2022-07-31T02:01:09.104Z,0.00
2022-07-31T02:02:09.763Z,0.00
2022-07-31T02:03:09.894Z,0.00
2022-07-31T02:04:09.757Z,0.00
2022-07-31T02:05:08.812Z,0.00
2022-07-31T02:06:08.800Z,0.00
2022-07-31T02:07:08.785Z,0.00
2022-07-31T02:08:08.768Z,0.00
2022-07-31T02:09:08.757Z,0.00
2022-07-31T02:10:08.745Z,0.00
2022-07-31T02:11:08.729Z,0.00
2022-07-31T02:12:09.885Z,0.00
2022-07-31T02:13:08.702Z,0.00
2022-07-31T02:14:08.682Z,0.00
2022-07-31T02:15:08.670Z,0.00
2022-07-31T02:16:08.659Z,0.00
2022-07-31T02:17:08.642Z,0.00
2022-07-31T02:18:08.630Z,0.00
2022-07-31T02:19:08.615Z,0.00
2022-07-31T02:20:08.599Z,0.00
2022-07-31T02:21:08.586Z,0.00
2022-07-31T02:22:08.567Z,0.00
2022-07-31T02:23:08.556Z,0.00
2022-07-31T02:24:08.544Z,0.00
2022-07-31T02:25:08.527Z,0.00
2022-07-31T02:26:08.512Z,0.00
2022-07-31T02:27:55.451Z,0.00
2022-07-31T02:28:08.484Z,0.00
2022-07-31T02:29:08.472Z,0.00
2022-07-31T02:30:08.455Z,0.00
2022-07-31T02:31:08.442Z,0.00
2022-07-31T02:32:08.424Z,0.00
2022-07-31T02:33:08.410Z,0.00
2022-07-31T02:34:08.392Z,0.00
2022-07-31T02:35:08.383Z,0.00
2022-07-31T02:36:08.365Z,0.00
2022-07-31T02:37:08.350Z,0.00
2022-07-31T02:38:08.336Z,0.00
2022-07-31T02:39:08.320Z,0.00
2022-07-31T02:40:08.305Z,0.00
2022-07-31T02:41:08.295Z,0.00
2022-07-31T02:42:08.281Z,0.00
2022-07-31T02:43:08.263Z,0.00
2022-07-31T02:44:08.249Z,0.00
2022-07-31T02:45:08.239Z,0.00
2022-07-31T02:46:08.223Z,0.00
2022-07-31T02:47:08.203Z,0.00
2022-07-31T02:48:08.191Z,0.00
2022-07-31T02:49:08.228Z,0.00
2022-07-31T02:50:08.162Z,0.00
2022-07-31T02:51:08.151Z,0.00
2022-07-31T02:52:08.139Z,0.00
2022-07-31T02:53:08.119Z,0.00
2022-07-31T02:54:08.105Z,0.00
2022-07-31T02:55:08.091Z,0.00
2022-07-31T02:56:08.074Z,0.00
2022-07-31T02:57:08.071Z,0.00
2022-07-31T02:58:08.044Z,0.00
2022-07-31T02:59:08.030Z,0.00
2022-07-31T03:00:08.016Z,0.00
2022-07-31T03:01:08.040Z,0.00
2022-07-31T03:02:08.006Z,0.00
2022-07-31T03:03:07.984Z,0.00
2022-07-31T03:04:07.957Z,0.00
2022-07-31T03:05:07.952Z,0.00
2022-07-31T03:06:07.934Z,0.00
2022-07-31T03:07:07.918Z,0.00
2022-07-31T03:08:07.908Z,0.00
2022-07-31T03:09:07.892Z,0.00
2022-07-31T03:10:07.866Z,0.00
2022-07-31T03:11:07.857Z,0.00
2022-07-31T03:12:08.014Z,0.00
2022-07-31T03:13:07.829Z,0.00
2022-07-31T03:14:07.810Z,0.00
2022-07-31T03:15:07.797Z,0.00
2022-07-31T03:16:07.781Z,4.00
2022-07-31T03:17:07.767Z,4.00
2022-07-31T03:18:11.183Z,0.00
2022-07-31T03:19:07.734Z,0.00
2022-07-31T03:20:07.737Z,4.00
2022-07-31T03:21:07.710Z,0.00
2022-07-31T03:22:10.200Z,4.00
2022-07-31T03:23:07.675Z,4.00
2022-07-31T03:24:07.663Z,4.00
2022-07-31T03:25:07.661Z,4.00
2022-07-31T03:26:07.633Z,8.00
2022-07-31T03:27:07.619Z,4.00
2022-07-31T03:28:07.604Z,8.00
2022-07-31T03:29:42.492Z,8.00
2022-07-31T03:30:07.578Z,8.00
2022-07-31T03:31:07.562Z,12.00
2022-07-31T03:32:07.583Z,12.00
2022-07-31T03:33:07.532Z,16.00
2022-07-31T03:34:07.514Z,16.00
2022-07-31T03:35:07.507Z,16.00
2022-07-31T03:36:07.484Z,20.00
2022-07-31T03:37:07.468Z,20.00
2022-07-31T03:38:40.755Z,24.00
2022-07-31T03:39:07.444Z,24.00
2022-07-31T03:40:07.424Z,28.00
2022-07-31T03:41:07.410Z,32.00
2022-07-31T03:42:07.609Z,36.00
2022-07-31T03:43:07.383Z,40.00
2022-07-31T03:44:07.373Z,40.00
2022-07-31T03:45:07.351Z,48.00
2022-07-31T03:46:07.334Z,52.00
2022-07-31T03:47:07.326Z,56.00
2022-07-31T03:48:07.307Z,60.00
2022-07-31T03:49:07.394Z,68.00
2022-07-31T03:50:07.283Z,72.00
2022-07-31T03:51:07.269Z,76.00
2022-07-31T03:52:11.757Z,84.00
2022-07-31T03:53:07.237Z,88.00
2022-07-31T03:54:07.216Z,96.00
2022-07-31T03:55:07.205Z,104.00
2022-07-31T03:56:07.194Z,108.00
2022-07-31T03:57:07.174Z,116.00
2022-07-31T03:58:07.160Z,124.00
2022-07-31T03:59:07.142Z,136.00
2022-07-31T04:00:07.420Z,148.00
2022-07-31T04:01:10.508Z,156.00
2022-07-31T04:02:07.122Z,164.00
2022-07-31T04:03:07.085Z,176.00
2022-07-31T04:04:07.068Z,192.00
2022-07-31T04:05:10.077Z,208.00
2022-07-31T04:06:07.040Z,224.00
2022-07-31T04:07:07.030Z,244.00
2022-07-31T04:08:07.014Z,264.00
2022-07-31T04:09:09.204Z,288.00
2022-07-31T04:10:06.982Z,316.00
2022-07-31T04:11:06.967Z,348.00
2022-07-31T04:12:07.426Z,376.00
2022-07-31T04:13:06.937Z,404.00
2022-07-31T04:14:06.919Z,432.00
2022-07-31T04:15:06.906Z,452.00
2022-07-31T04:16:06.893Z,468.00
2022-07-31T04:17:06.875Z,476.00
2022-07-31T04:18:06.860Z,472.00
2022-07-31T04:19:06.850Z,472.00
2022-07-31T04:20:06.837Z,460.00
2022-07-31T04:21:06.822Z,456.00
2022-07-31T04:22:07.306Z,448.00
2022-07-31T04:23:07.167Z,436.00
2022-07-31T04:24:06.774Z,432.00
2022-07-31T04:25:06.764Z,424.00
2022-07-31T04:26:06.744Z,416.00
2022-07-31T04:27:12.285Z,412.00
2022-07-31T04:28:06.714Z,408.00
2022-07-31T04:29:06.703Z,404.00
2022-07-31T04:30:06.688Z,408.00
2022-07-31T04:31:06.669Z,408.00
2022-07-31T04:32:07.127Z,408.00
2022-07-31T04:33:06.643Z,408.00
2022-07-31T04:34:06.624Z,408.00
2022-07-31T04:35:06.614Z,408.00
2022-07-31T04:36:06.595Z,412.00
2022-07-31T04:37:06.583Z,412.00
2022-07-31T04:38:06.564Z,420.00
2022-07-31T04:39:06.551Z,428.00
2022-07-31T04:40:06.535Z,452.00
2022-07-31T04:41:06.525Z,480.00
2022-07-31T04:42:11.012Z,520.00
2022-07-31T04:43:06.490Z,568.00
2022-07-31T04:44:06.480Z,612.00
2022-07-31T04:45:06.459Z,660.00
2022-07-31T04:46:17.682Z,700.00
2022-07-31T04:47:06.442Z,728.00
2022-07-31T04:48:06.415Z,752.00
2022-07-31T04:49:06.463Z,776.00
2022-07-31T04:50:06.385Z,804.00
2022-07-31T04:51:06.372Z,832.00
2022-07-31T04:52:06.679Z,864.00
2022-07-31T04:53:06.344Z,900.00
2022-07-31T04:54:06.324Z,896.00
2022-07-31T04:55:06.315Z,880.00
2022-07-31T04:56:06.298Z,868.00
2022-07-31T04:57:06.282Z,836.00
2022-07-31T04:58:06.268Z,808.00
2022-07-31T04:59:06.287Z,784.00
2022-07-31T05:00:06.243Z,796.00
2022-07-31T05:01:06.219Z,776.00
2022-07-31T05:02:06.720Z,784.00
2022-07-31T05:03:06.194Z,776.00
2022-07-31T05:04:06.177Z,776.00
2022-07-31T05:05:06.162Z,776.00
2022-07-31T05:06:06.147Z,772.00
2022-07-31T05:07:06.138Z,772.00
2022-07-31T05:08:06.119Z,768.00
2022-07-31T05:09:08.934Z,768.00
2022-07-31T05:10:06.083Z,768.00
2022-07-31T05:11:06.071Z,772.00
2022-07-31T05:12:06.479Z,776.00
2022-07-31T05:13:06.041Z,776.00
2022-07-31T05:14:06.026Z,780.00
2022-07-31T05:15:06.012Z,788.00
2022-07-31T05:16:05.998Z,792.00
2022-07-31T05:17:05.986Z,812.00
2022-07-31T05:18:05.969Z,828.00
2022-07-31T05:19:05.954Z,844.00
2022-07-31T05:20:05.936Z,860.00
2022-07-31T05:21:05.927Z,872.00
2022-07-31T05:22:06.257Z,872.00
2022-07-31T05:23:06.611Z,884.00
2022-07-31T05:24:05.879Z,876.00
2022-07-31T05:25:05.863Z,876.00
2022-07-31T05:26:05.849Z,872.00
2022-07-31T05:27:05.837Z,872.00
2022-07-31T05:28:09.597Z,872.00
2022-07-31T05:29:05.807Z,880.00
2022-07-31T05:30:05.806Z,892.00
2022-07-31T05:31:05.774Z,908.00
2022-07-31T05:32:05.763Z,952.00
2022-07-31T05:33:05.750Z,1004.00
2022-07-31T05:34:05.728Z,1040.00
2022-07-31T05:35:05.715Z,1076.00
2022-07-31T05:36:05.698Z,1088.00
2022-07-31T05:37:05.689Z,1088.00
2022-07-31T05:38:05.667Z,1080.00
2022-07-31T05:39:05.654Z,1088.00
2022-07-31T05:40:05.640Z,1096.00
2022-07-31T05:41:05.627Z,1100.00
2022-07-31T05:42:06.103Z,1116.00
2022-07-31T05:43:05.601Z,1136.00
2022-07-31T05:44:05.585Z,1168.00
2022-07-31T05:45:05.569Z,1192.00
2022-07-31T05:46:05.552Z,1228.00
2022-07-31T05:47:05.538Z,1232.00
2022-07-31T05:48:05.526Z,1224.00
2022-07-31T05:49:05.583Z,1228.00
2022-07-31T05:50:05.491Z,1252.00
2022-07-31T05:51:05.878Z,1304.00
2022-07-31T05:52:05.993Z,1332.00
2022-07-31T05:53:05.449Z,1380.00
2022-07-31T05:54:05.440Z,1440.00
2022-07-31T05:55:05.422Z,1496.00
2022-07-31T05:56:05.404Z,1588.00
2022-07-31T05:57:05.391Z,1652.00
2022-07-31T05:58:05.382Z,1736.00
2022-07-31T05:59:05.368Z,1832.00
2022-07-31T06:00:05.347Z,1912.00
2022-07-31T06:01:05.389Z,2028.00
2022-07-31T06:02:05.603Z,2116.00
2022-07-31T06:03:05.305Z,2236.00
2022-07-31T06:04:05.284Z,2352.00
2022-07-31T06:05:05.273Z,2432.00
2022-07-31T06:06:05.255Z,2476.00
2022-07-31T06:07:05.241Z,2536.00
2022-07-31T06:08:05.225Z,2620.00
2022-07-31T06:09:05.275Z,2740.00
2022-07-31T06:10:05.200Z,2980.00
2022-07-31T06:11:05.188Z,3072.00
2022-07-31T06:12:05.619Z,3080.00
2022-07-31T06:13:05.158Z,3116.00
2022-07-31T06:14:05.140Z,3040.00
2022-07-31T06:15:05.127Z,2980.00
2022-07-31T06:16:05.108Z,2936.00
2022-07-31T06:17:05.094Z,2924.00
2022-07-31T06:18:05.082Z,2880.00
2022-07-31T06:19:05.065Z,2860.00
2022-07-31T06:20:05.053Z,2832.00
2022-07-31T06:21:05.041Z,2812.00
2022-07-31T06:22:05.373Z,2760.00
2022-07-31T06:23:19.868Z,2788.00
2022-07-31T06:24:04.993Z,2752.00
2022-07-31T06:25:04.983Z,2592.00
2022-07-31T06:26:05.005Z,2676.00
2022-07-31T06:27:04.951Z,2680.00
2022-07-31T06:28:05.228Z,2700.00
2022-07-31T06:29:04.924Z,2692.00
2022-07-31T06:30:04.907Z,2668.00
2022-07-31T06:31:04.909Z,2584.00
2022-07-31T06:32:05.285Z,2480.00
2022-07-31T06:33:08.286Z,2376.00
2022-07-31T06:34:04.851Z,2288.00
2022-07-31T06:35:04.843Z,2232.00
2022-07-31T06:36:04.839Z,2176.00
2022-07-31T06:37:04.808Z,2160.00
2022-07-31T06:38:04.797Z,2152.00
2022-07-31T06:39:04.781Z,2140.00
2022-07-31T06:40:04.765Z,2144.00
2022-07-31T06:41:04.757Z,2156.00
2022-07-31T06:42:05.141Z,2152.00
2022-07-31T06:43:06.877Z,2136.00
2022-07-31T06:44:04.715Z,2120.00
2022-07-31T06:45:04.697Z,2016.00
2022-07-31T06:46:04.681Z,1992.00
2022-07-31T06:47:04.666Z,1928.00
2022-07-31T06:48:04.656Z,1876.00
2022-07-31T06:49:08.738Z,1824.00
2022-07-31T06:50:04.626Z,1788.00
2022-07-31T06:51:29.144Z,1752.00
2022-07-31T06:52:04.988Z,1748.00
2022-07-31T06:53:04.583Z,1736.00
2022-07-31T06:54:04.569Z,1748.00
2022-07-31T06:55:04.564Z,1760.00
2022-07-31T06:56:04.546Z,1752.00
2022-07-31T06:57:04.531Z,1764.00
2022-07-31T06:58:04.529Z,1748.00
2022-07-31T06:59:04.504Z,1748.00
2022-07-31T07:00:19.890Z,1748.00
2022-07-31T07:01:04.549Z,1728.00
2022-07-31T07:02:04.779Z,1748.00
2022-07-31T07:03:04.445Z,1772.00
2022-07-31T07:04:04.432Z,1728.00
2022-07-31T07:05:06.843Z,1808.00
2022-07-31T07:06:04.416Z,1828.00
2022-07-31T07:07:04.391Z,1896.00
2022-07-31T07:08:04.374Z,1924.00
2022-07-31T07:09:04.362Z,2024.00
2022-07-31T07:10:04.347Z,2080.00
2022-07-31T07:11:04.333Z,2172.00
2022-07-31T07:12:04.517Z,2260.00
2022-07-31T07:13:04.306Z,2388.00
2022-07-31T07:14:04.294Z,2508.00
2022-07-31T07:15:04.275Z,2644.00
2022-07-31T07:16:04.263Z,2784.00
2022-07-31T07:17:04.250Z,2920.00
2022-07-31T07:18:04.236Z,2960.00
2022-07-31T07:19:04.220Z,3044.00
2022-07-31T07:20:04.227Z,3148.00
2022-07-31T07:21:04.196Z,3148.00
2022-07-31T07:22:04.465Z,3212.00
2022-07-31T07:23:04.198Z,3200.00
2022-07-31T07:24:04.148Z,3248.00
2022-07-31T07:25:04.144Z,3168.00
2022-07-31T07:26:04.126Z,3076.00
2022-07-31T07:27:04.133Z,3040.00
2022-07-31T07:28:04.114Z,3008.00
2022-07-31T07:29:04.084Z,3032.00
2022-07-31T07:30:04.072Z,3052.00
2022-07-31T07:31:04.057Z,3104.00
2022-07-31T07:32:04.383Z,3072.00
2022-07-31T07:33:04.030Z,3064.00
2022-07-31T07:34:04.013Z,3212.00
2022-07-31T07:35:04.008Z,3216.00
2022-07-31T07:36:03.992Z,3404.00
2022-07-31T07:37:03.975Z,3580.00
2022-07-31T07:38:03.961Z,3848.00
2022-07-31T07:39:03.949Z,4144.00
2022-07-31T07:40:04.375Z,4428.00
2022-07-31T07:41:03.926Z,4600.00
2022-07-31T07:42:04.278Z,4768.00
2022-07-31T07:43:03.900Z,4776.00
2022-07-31T07:44:03.897Z,4800.00
2022-07-31T07:45:06.646Z,4696.00
2022-07-31T07:46:03.854Z,4656.00
2022-07-31T07:47:03.847Z,4580.00
2022-07-31T07:48:06.849Z,4512.00
2022-07-31T07:49:03.841Z,4520.00
2022-07-31T07:50:03.805Z,4560.00
2022-07-31T07:51:03.789Z,4580.00
2022-07-31T07:52:03.777Z,4588.00
2022-07-31T07:53:03.768Z,4612.00
2022-07-31T07:54:03.754Z,4668.00
2022-07-31T07:55:03.743Z,4812.00
2022-07-31T07:56:03.729Z,5072.00
2022-07-31T07:57:03.713Z,5544.00
2022-07-31T07:58:03.702Z,6132.00
2022-07-31T07:59:03.687Z,6876.00
2022-07-31T08:00:03.672Z,7680.00
2022-07-31T08:01:03.731Z,8572.00
2022-07-31T08:02:04.009Z,9236.00
2022-07-31T08:03:49.764Z,8836.00
2022-07-31T08:04:03.619Z,9428.00
2022-07-31T08:05:03.606Z,8736.00
2022-07-31T08:06:03.600Z,8148.00
2022-07-31T08:07:03.594Z,7632.00
2022-07-31T08:08:03.580Z,6984.00
2022-07-31T08:09:03.559Z,6380.00
2022-07-31T08:10:03.544Z,5796.00
2022-07-31T08:11:03.537Z,5296.00
2022-07-31T08:12:03.888Z,4872.00
2022-07-31T08:13:03.513Z,4532.00
2022-07-31T08:14:03.501Z,4148.00
2022-07-31T08:15:03.486Z,3912.00
2022-07-31T08:16:03.480Z,3624.00
2022-07-31T08:17:03.461Z,3328.00
2022-07-31T08:18:03.449Z,3140.00
2022-07-31T08:19:03.440Z,3064.00
2022-07-31T08:20:03.431Z,3060.00
2022-07-31T08:21:03.424Z,3128.00
2022-07-31T08:22:03.666Z,3180.00
2022-07-31T08:23:03.394Z,3384.00
2022-07-31T08:24:03.377Z,3560.00
2022-07-31T08:25:05.303Z,3660.00
2022-07-31T08:26:03.349Z,3816.00
2022-07-31T08:27:03.342Z,3864.00
2022-07-31T08:28:03.330Z,3936.00
2022-07-31T08:29:05.047Z,3944.00
2022-07-31T08:30:03.303Z,4028.00
2022-07-31T08:31:03.292Z,4000.00
2022-07-31T08:32:03.666Z,3940.00
2022-07-31T08:33:03.266Z,3920.00
2022-07-31T08:34:03.256Z,3884.00
2022-07-31T08:35:03.241Z,3840.00
2022-07-31T08:36:03.226Z,3772.00
2022-07-31T08:37:52.206Z,3696.00
2022-07-31T08:38:04.731Z,3840.00
2022-07-31T08:39:03.196Z,4056.00
2022-07-31T08:40:03.180Z,4408.00
2022-07-31T08:41:03.168Z,4784.00
2022-07-31T08:42:03.395Z,5504.00
2022-07-31T08:43:07.319Z,9720.00
2022-07-31T08:44:04.426Z,7236.00
2022-07-31T08:45:03.117Z,7644.00
2022-07-31T08:46:03.228Z,7476.00
2022-07-31T08:47:03.095Z,7492.00
2022-07-31T08:48:03.086Z,7828.00
2022-07-31T08:49:03.079Z,7488.00
2022-07-31T08:50:03.062Z,7420.00
2022-07-31T08:51:03.046Z,7000.00
2022-07-31T08:52:03.392Z,7004.00
2022-07-31T08:53:03.025Z,7064.00
2022-07-31T08:54:03.009Z,7456.00
2022-07-31T08:55:03.005Z,7896.00
2022-07-31T08:56:02.987Z,9304.00
2022-07-31T08:57:03.313Z,8724.00
2022-07-31T08:58:02.963Z,9128.00
2022-07-31T08:59:02.954Z,8988.00
2022-07-31T09:00:02.937Z,7708.00
2022-07-31T09:01:03.061Z,8048.00
2022-07-31T09:02:03.192Z,9928.00
2022-07-31T09:03:02.904Z,10340.00
2022-07-31T09:04:02.890Z,8240.00
2022-07-31T09:05:02.887Z,12956.00
2022-07-31T09:06:02.865Z,14320.00
2022-07-31T09:07:03.160Z,11372.00
2022-07-31T09:08:02.849Z,11248.00
2022-07-31T09:09:02.832Z,10504.00
2022-07-31T09:10:02.825Z,10184.00
2022-07-31T09:11:02.811Z,9812.00
2022-07-31T09:12:02.798Z,7676.00
2022-07-31T09:13:02.787Z,5976.00
2022-07-31T09:14:03.466Z,5760.00
2022-07-31T09:15:02.764Z,5400.00
2022-07-31T09:16:02.778Z,5088.00
2022-07-31T09:17:02.994Z,4864.00
2022-07-31T09:18:02.730Z,4808.00
2022-07-31T09:19:02.726Z,4940.00
2022-07-31T09:20:02.709Z,5116.00
2022-07-31T09:21:02.696Z,5464.00
2022-07-31T09:22:05.196Z,6628.00
2022-07-31T09:23:02.676Z,6560.00
2022-07-31T09:24:02.665Z,6948.00
2022-07-31T09:25:02.656Z,7380.00
2022-07-31T09:26:02.640Z,10052.00
2022-07-31T09:27:02.930Z,12468.00
2022-07-31T09:28:02.616Z,17344.00
2022-07-31T09:29:02.607Z,15200.00
2022-07-31T09:30:02.597Z,13500.00
2022-07-31T09:31:02.583Z,10812.00
2022-07-31T09:32:02.572Z,8616.00
2022-07-31T09:33:02.562Z,8204.00
2022-07-31T09:34:02.550Z,9332.00
2022-07-31T09:35:02.538Z,9688.00
2022-07-31T09:36:02.527Z,8872.00
2022-07-31T09:37:02.865Z,8520.00
2022-07-31T09:38:04.491Z,7584.00
2022-07-31T09:39:04.227Z,7248.00
2022-07-31T09:40:02.484Z,8888.00
2022-07-31T09:41:02.476Z,7720.00
2022-07-31T09:42:16.158Z,7384.00
2022-07-31T09:43:03.081Z,6848.00
2022-07-31T09:44:02.439Z,6396.00
2022-07-31T09:45:02.430Z,6008.00
2022-07-31T09:46:02.419Z,5892.00
2022-07-31T09:47:02.733Z,5856.00
2022-07-31T09:48:02.399Z,6476.00
2022-07-31T09:49:02.452Z,7684.00
2022-07-31T09:50:02.378Z,10352.00
2022-07-31T09:51:02.367Z,9028.00
2022-07-31T09:52:02.355Z,7948.00
2022-07-31T09:53:02.350Z,7460.00
2022-07-31T09:54:02.328Z,6944.00
2022-07-31T09:55:02.322Z,6780.00
2022-07-31T09:56:02.308Z,7816.00
2022-07-31T09:57:02.595Z,5996.00
2022-07-31T09:58:02.286Z,5752.00
2022-07-31T09:59:02.274Z,5464.00
2022-07-31T10:00:02.266Z,5252.00
2022-07-31T10:01:02.328Z,5180.00
2022-07-31T10:02:02.247Z,4924.00
2022-07-31T10:03:02.233Z,4700.00
2022-07-31T10:04:02.219Z,4340.00
2022-07-31T10:05:02.212Z,4064.00
2022-07-31T10:06:02.199Z,3716.00
2022-07-31T10:07:02.733Z,3628.00
2022-07-31T10:08:02.175Z,3548.00
2022-07-31T10:09:02.167Z,3532.00
2022-07-31T10:10:02.153Z,3596.00
2022-07-31T10:11:02.144Z,3584.00
2022-07-31T10:12:02.128Z,3696.00
2022-07-31T10:13:02.122Z,3616.00
2022-07-31T10:14:02.112Z,3484.00
2022-07-31T10:15:02.103Z,3388.00
2022-07-31T10:16:02.091Z,3284.00
2022-07-31T10:17:02.504Z,3172.00
2022-07-31T10:18:02.065Z,3036.00
2022-07-31T10:19:02.049Z,2956.00
2022-07-31T10:20:02.044Z,2964.00
2022-07-31T10:21:02.027Z,3000.00
2022-07-31T10:22:02.017Z,3032.00
2022-07-31T10:23:02.011Z,3356.00
2022-07-31T10:24:01.993Z,3544.00
2022-07-31T10:25:02.039Z,3796.00
2022-07-31T10:26:01.973Z,4084.00
2022-07-31T10:27:08.087Z,4448.00
2022-07-31T10:28:01.949Z,4692.00
2022-07-31T10:29:01.935Z,4828.00
2022-07-31T10:30:01.933Z,5040.00
2022-07-31T10:31:01.916Z,4956.00
2022-07-31T10:32:01.897Z,5308.00
2022-07-31T10:33:01.887Z,5240.00
2022-07-31T10:34:01.879Z,5060.00
2022-07-31T10:35:01.878Z,4744.00
2022-07-31T10:36:01.857Z,4424.00
2022-07-31T10:37:02.197Z,4268.00
2022-07-31T10:38:01.831Z,4120.00
2022-07-31T10:39:01.814Z,3908.00
2022-07-31T10:40:01.813Z,3728.00
2022-07-31T10:41:01.793Z,3812.00
2022-07-31T10:42:01.784Z,3708.00
2022-07-31T10:43:01.766Z,3864.00
2022-07-31T10:44:01.758Z,3932.00
2022-07-31T10:45:01.747Z,3960.00
2022-07-31T10:46:01.732Z,4044.00
2022-07-31T10:47:02.105Z,4128.00
2022-07-31T10:48:01.717Z,4244.00
2022-07-31T10:49:01.742Z,4408.00
2022-07-31T10:50:01.683Z,4648.00
2022-07-31T10:51:01.674Z,4884.00
2022-07-31T10:52:01.666Z,4980.00
2022-07-31T10:53:01.649Z,5152.00
2022-07-31T10:54:01.632Z,5260.00
2022-07-31T10:55:01.659Z,5452.00
2022-07-31T10:56:01.626Z,5776.00
2022-07-31T10:57:02.010Z,6388.00
2022-07-31T10:58:01.591Z,6732.00
2022-07-31T10:59:01.581Z,7088.00
2022-07-31T11:00:01.566Z,7196.00
2022-07-31T11:01:01.570Z,7460.00
2022-07-31T11:02:01.579Z,7372.00
2022-07-31T11:03:01.538Z,7396.00
2022-07-31T11:04:01.533Z,6940.00
2022-07-31T11:05:01.509Z,6580.00
2022-07-31T11:06:03.173Z,6504.00
2022-07-31T11:07:01.739Z,6336.00
2022-07-31T11:08:01.474Z,6316.00
2022-07-31T11:09:01.463Z,6368.00
2022-07-31T11:10:01.448Z,6028.00
2022-07-31T11:11:03.542Z,6112.00
2022-07-31T11:12:01.434Z,5964.00
2022-07-31T11:13:01.418Z,5916.00
2022-07-31T11:14:01.411Z,5920.00
2022-07-31T11:15:01.396Z,5968.00
2022-07-31T11:16:01.533Z,5976.00
2022-07-31T11:17:01.618Z,6116.00
2022-07-31T11:18:21.122Z,6356.00
2022-07-31T11:19:01.358Z,6232.00
2022-07-31T11:20:01.360Z,6248.00
2022-07-31T11:21:09.540Z,6284.00
2022-07-31T11:22:01.315Z,6112.00
2022-07-31T11:23:01.304Z,5868.00
2022-07-31T11:24:02.980Z,5696.00
2022-07-31T11:25:01.282Z,5524.00
2022-07-31T11:26:01.271Z,5384.00
2022-07-31T11:27:01.361Z,5260.00
2022-07-31T11:28:01.255Z,5308.00
2022-07-31T11:30:01.157Z,5432.00
2022-07-31T11:30:04.116Z,5704.00
2022-07-31T11:31:01.231Z,5980.00
2022-07-31T11:32:01.213Z,6208.00
2022-07-31T11:33:01.203Z,6608.00
2022-07-31T11:34:01.182Z,6964.00
2022-07-31T11:35:01.176Z,6708.00
2022-07-31T11:36:01.161Z,6736.00
2022-07-31T11:37:01.159Z,6660.00
2022-07-31T11:38:01.137Z,6232.00
2022-07-31T11:39:01.128Z,6028.00
2022-07-31T11:40:01.119Z,5792.00
2022-07-31T11:41:01.105Z,5460.00
2022-07-31T11:42:01.096Z,5148.00
2022-07-31T11:43:27.146Z,4972.00
2022-07-31T11:44:01.076Z,4800.00
2022-07-31T11:45:01.067Z,4668.00
2022-07-31T11:46:01.054Z,4456.00
2022-07-31T11:47:01.166Z,4164.00
2022-07-31T11:48:11.531Z,4020.00
2022-07-31T11:49:01.091Z,4036.00
2022-07-31T11:50:01.066Z,4076.00
2022-07-31T11:51:01.013Z,4276.00
2022-07-31T11:52:00.989Z,4404.00
2022-07-31T11:53:00.985Z,4516.00
2022-07-31T11:54:00.968Z,4560.00
2022-07-31T11:55:04.250Z,4448.00
2022-07-31T11:56:00.940Z,4448.00
2022-07-31T11:57:00.931Z,4196.00
2022-07-31T11:58:00.916Z,4112.00
2022-07-31T11:59:00.909Z,3996.00
2022-07-31T12:00:00.896Z,3956.00
2022-07-31T12:01:00.888Z,3824.00
2022-07-31T12:02:00.882Z,3780.00
2022-07-31T12:03:01.002Z,3908.00
2022-07-31T12:04:07.653Z,3796.00
2022-07-31T12:05:00.846Z,3832.00
2022-07-31T12:06:00.827Z,3860.00
2022-07-31T12:07:00.814Z,3644.00
2022-07-31T12:08:00.807Z,3860.00
2022-07-31T12:09:00.793Z,3840.00
2022-07-31T12:10:03.520Z,3800.00
2022-07-31T12:11:00.768Z,3804.00
2022-07-31T12:12:00.766Z,3876.00
2022-07-31T12:13:00.749Z,3912.00
2022-07-31T12:14:00.742Z,3932.00
2022-07-31T12:15:00.725Z,3968.00
2022-07-31T12:16:00.711Z,4008.00
2022-07-31T12:17:00.700Z,4068.00
2022-07-31T12:18:00.689Z,4180.00
2022-07-31T12:19:00.684Z,4308.00
2022-07-31T12:20:00.666Z,4272.00
2022-07-31T12:21:00.654Z,4668.00
2022-07-31T12:22:00.642Z,4776.00
2022-07-31T12:23:00.655Z,4944.00
2022-07-31T12:24:00.617Z,4988.00
2022-07-31T12:25:00.610Z,4996.00
2022-07-31T12:26:00.591Z,5064.00
2022-07-31T12:27:00.589Z,5068.00
2022-07-31T12:28:00.572Z,5064.00